Terminal Aerodrome Forecast
Issued by NWS Sioux Falls, SD

Home | Current Version | Previous Version | Graphics & Text | Print | Product List | Glossary On
Versions: 1 2 3 4 5 6 7 8 9 10 11 12 13 14 15 16 17 18 19 20 21 22 23 24 25 26 27 28
736
FTUS43 KFSD 181729
TAFSUX
TAF
KSUX 181729Z 1818/1918 35014KT 2SM -SN OVC015
     FM182100 33014KT P6SM -SN OVC020
     FM182300 33014KT P6SM OVC020
     FM190400 34007KT P6SM SCT040
     FM191400 36005KT P6SM FEW150=

USA.gov is the U.S. government's official web portal to all federal, state and local government web resources and services.